createdAt,value
2023-02-13T00:00:08.819Z,1031.22
2023-02-13T00:01:08.751Z,1031.22
2023-02-13T00:02:08.818Z,1031.25
2023-02-13T00:03:08.785Z,1031.34
2023-02-13T00:04:08.720Z,1031.23
2023-02-13T00:05:08.693Z,1031.23
2023-02-13T00:06:08.744Z,1031.23
2023-02-13T00:07:08.695Z,1031.26
2023-02-13T00:08:08.695Z,1031.22
2023-02-13T00:09:08.664Z,1031.21
2023-02-13T00:10:08.685Z,1031.23
2023-02-13T00:11:08.631Z,1031.22
2023-02-13T00:12:08.704Z,1031.23
2023-02-13T00:13:08.606Z,1031.24
2023-02-13T00:14:08.602Z,1031.20
2023-02-13T00:15:08.585Z,1031.17
2023-02-13T00:16:08.637Z,1031.22
2023-02-13T00:17:08.577Z,1031.14
2023-02-13T00:18:08.574Z,1031.18
2023-02-13T00:19:08.545Z,1031.15
2023-02-13T00:20:08.566Z,1031.16
2023-02-13T00:21:08.513Z,1031.13
2023-02-13T00:22:08.545Z,1031.12
2023-02-13T00:23:08.499Z,1031.13
2023-02-13T00:24:08.515Z,1031.11
2023-02-13T00:25:08.492Z,1031.11
2023-02-13T00:26:08.503Z,1031.12
2023-02-13T00:27:08.469Z,1031.12
2023-02-13T00:28:08.516Z,1031.10
2023-02-13T00:29:08.430Z,1031.11
2023-02-13T00:30:08.509Z,1031.10
2023-02-13T00:31:08.485Z,1031.09
2023-02-13T00:32:08.663Z,1031.07
2023-02-13T00:33:08.382Z,1031.07
2023-02-13T00:34:08.472Z,1031.09
2023-02-13T00:35:08.358Z,1031.10
2023-02-13T00:36:08.365Z,1031.11
2023-02-13T00:37:08.362Z,1031.11
2023-02-13T00:38:08.360Z,1031.06
2023-02-13T00:39:08.312Z,1031.07
2023-02-13T00:40:08.433Z,1031.08
2023-02-13T00:41:08.294Z,1031.01
2023-02-13T00:42:08.356Z,1031.05
2023-02-13T00:43:08.267Z,1031.03
2023-02-13T00:44:08.280Z,1030.99
2023-02-13T00:45:08.241Z,1031.03
2023-02-13T00:46:08.291Z,1031.01
2023-02-13T00:47:08.231Z,1030.94
2023-02-13T00:48:08.242Z,1030.96
2023-02-13T00:49:08.206Z,1030.93
2023-02-13T00:50:08.228Z,1030.94
2023-02-13T00:51:08.186Z,1030.92
2023-02-13T00:52:08.261Z,1030.93
2023-02-13T00:53:08.164Z,1030.93
2023-02-13T00:54:08.156Z,1030.92
2023-02-13T00:55:08.134Z,1030.94
2023-02-13T00:56:08.160Z,1030.92
2023-02-13T00:57:08.279Z,1030.95
2023-02-13T00:58:08.194Z,1030.96
2023-02-13T00:59:08.097Z,1030.97
2023-02-13T01:00:08.143Z,1030.94
2023-02-13T01:01:08.073Z,1030.98
2023-02-13T01:02:08.103Z,1030.96
2023-02-13T01:03:08.044Z,1030.96
2023-02-13T01:04:08.045Z,1030.93
2023-02-13T01:05:08.027Z,1030.90
2023-02-13T01:06:08.037Z,1030.90
2023-02-13T01:07:08.166Z,1030.88
2023-02-13T01:08:08.068Z,1030.91
2023-02-13T01:09:08.011Z,1030.92
2023-02-13T01:10:08.001Z,1030.86
2023-02-13T01:11:07.959Z,1030.82
2023-02-13T01:12:07.976Z,1030.84
2023-02-13T01:13:07.940Z,1030.86
2023-02-13T01:14:07.942Z,1030.85
2023-02-13T01:15:07.921Z,1030.82
2023-02-13T01:16:07.972Z,1030.84
2023-02-13T01:17:07.910Z,1030.87
2023-02-13T01:18:07.951Z,1030.80
2023-02-13T01:19:07.882Z,1030.80
2023-02-13T01:20:07.914Z,1030.80
2023-02-13T01:21:07.872Z,1030.79
2023-02-13T01:22:07.875Z,1030.77
2023-02-13T01:23:07.846Z,1030.77
2023-02-13T01:24:07.845Z,1030.81
2023-02-13T01:25:07.816Z,1030.75
2023-02-13T01:26:07.826Z,1030.76
2023-02-13T01:27:07.809Z,1030.77
2023-02-13T01:28:07.795Z,1030.83
2023-02-13T01:29:07.777Z,1030.77
2023-02-13T01:30:07.765Z,1030.78
2023-02-13T01:31:07.827Z,1030.76
2023-02-13T01:32:07.804Z,1030.72
2023-02-13T01:33:07.737Z,1030.77
2023-02-13T01:34:07.725Z,1030.82
2023-02-13T01:35:07.721Z,1030.81
2023-02-13T01:36:07.775Z,1030.80
2023-02-13T01:37:07.690Z,1030.77
2023-02-13T01:38:07.692Z,1030.84
2023-02-13T01:39:07.663Z,1030.77
2023-02-13T01:40:07.668Z,1030.83
2023-02-13T01:41:07.649Z,1030.83
2023-02-13T01:42:07.678Z,1030.78
2023-02-13T01:43:07.652Z,1030.73
2023-02-13T01:44:07.612Z,1030.72
2023-02-13T01:45:07.590Z,1030.73
2023-02-13T01:46:07.624Z,1030.72
2023-02-13T01:47:07.582Z,1030.75
2023-02-13T01:48:07.584Z,1030.75
2023-02-13T01:49:07.542Z,1030.73
2023-02-13T01:50:07.590Z,1030.75
2023-02-13T01:51:07.523Z,1030.74
2023-02-13T01:52:07.552Z,1030.79
2023-02-13T01:53:07.513Z,1030.73
2023-02-13T01:54:07.506Z,1030.74
2023-02-13T01:55:07.492Z,1030.76
2023-02-13T01:56:07.501Z,1030.73
2023-02-13T01:57:07.477Z,1030.75
2023-02-13T01:58:07.531Z,1030.74
2023-02-13T01:59:07.450Z,1030.67
2023-02-13T02:00:07.459Z,1030.74
2023-02-13T02:01:07.413Z,1030.74
2023-02-13T02:02:07.545Z,1030.75
2023-02-13T02:03:07.397Z,1030.76
2023-02-13T02:04:07.441Z,1030.73
2023-02-13T02:05:07.373Z,1030.75
2023-02-13T02:06:07.363Z,1030.70
2023-02-13T02:07:07.375Z,1030.68
2023-02-13T02:08:07.332Z,1030.71
2023-02-13T02:09:07.322Z,1030.76
2023-02-13T02:10:07.386Z,1030.73
2023-02-13T02:11:07.310Z,1030.72
2023-02-13T02:12:07.323Z,1030.73
2023-02-13T02:13:07.284Z,1030.72
2023-02-13T02:14:07.526Z,1030.79
2023-02-13T02:15:07.259Z,1030.76
2023-02-13T02:16:07.631Z,1030.80
2023-02-13T02:17:07.248Z,1030.78
2023-02-13T02:18:07.296Z,1030.84
2023-02-13T02:19:07.228Z,1030.82
2023-02-13T02:20:07.222Z,1030.82
2023-02-13T02:21:07.191Z,1030.81
2023-02-13T02:22:07.217Z,1030.82
2023-02-13T02:23:07.172Z,1030.84
2023-02-13T02:24:07.242Z,1030.85
2023-02-13T02:25:07.151Z,1030.79
2023-02-13T02:26:07.165Z,1030.85
2023-02-13T02:27:07.142Z,1030.85
2023-02-13T02:28:07.233Z,1030.85
2023-02-13T02:29:07.110Z,1030.83
2023-02-13T02:30:07.149Z,1030.85
2023-02-13T02:31:07.222Z,1030.86
2023-02-13T02:32:07.095Z,1030.86
2023-02-13T02:33:07.073Z,1030.86
2023-02-13T02:34:08.131Z,1030.85
2023-02-13T02:35:07.052Z,1030.87
2023-02-13T02:36:07.225Z,1030.86
2023-02-13T02:37:07.034Z,1030.88
2023-02-13T02:38:07.060Z,1030.85
2023-02-13T02:39:07.000Z,1030.85
2023-02-13T02:40:07.061Z,1030.83
2023-02-13T02:41:06.988Z,1030.82
2023-02-13T02:42:07.016Z,1030.81
2023-02-13T02:43:06.956Z,1030.79
2023-02-13T02:44:07.028Z,1030.75
2023-02-13T02:45:06.941Z,1030.79
2023-02-13T02:46:06.948Z,1030.77
2023-02-13T02:47:06.914Z,1030.72
2023-02-13T02:48:06.997Z,1030.74
2023-02-13T02:49:06.893Z,1030.76
2023-02-13T02:50:06.884Z,1030.75
2023-02-13T02:51:06.863Z,1030.73
2023-02-13T02:52:06.867Z,1030.79
2023-02-13T02:53:06.842Z,1030.75
2023-02-13T02:54:06.843Z,1030.72
2023-02-13T02:55:06.834Z,1030.75
2023-02-13T02:56:06.823Z,1030.71
2023-02-13T02:57:06.811Z,1030.75
2023-02-13T02:58:06.785Z,1030.76
2023-02-13T02:59:06.787Z,1030.80
2023-02-13T03:00:06.781Z,1030.80
2023-02-13T03:01:06.811Z,1030.78
2023-02-13T03:02:06.822Z,1030.79
2023-02-13T03:03:06.725Z,1030.75
2023-02-13T03:04:06.746Z,1030.77
2023-02-13T03:05:06.714Z,1030.80
2023-02-13T03:06:06.775Z,1030.80
2023-02-13T03:07:06.693Z,1030.79
2023-02-13T03:08:06.673Z,1030.83
2023-02-13T03:09:06.665Z,1030.79
2023-02-13T03:10:06.654Z,1030.81
2023-02-13T03:11:06.642Z,1030.80
2023-02-13T03:12:06.668Z,1030.84
2023-02-13T03:13:06.626Z,1030.83
2023-02-13T03:14:06.641Z,1030.84
2023-02-13T03:15:06.593Z,1030.79
2023-02-13T03:16:07.248Z,1030.80
2023-02-13T03:17:06.610Z,1030.79
2023-02-13T03:18:06.571Z,1030.82
2023-02-13T03:19:06.565Z,1030.84
2023-02-13T03:20:06.597Z,1030.82
2023-02-13T03:21:06.533Z,1030.85
2023-02-13T03:22:06.525Z,1030.86
2023-02-13T03:23:06.514Z,1030.86
2023-02-13T03:24:06.836Z,1030.87
2023-02-13T03:25:06.485Z,1030.87
2023-02-13T03:26:06.498Z,1030.86
2023-02-13T03:27:06.464Z,1030.87
2023-02-13T03:28:06.562Z,1030.83
2023-02-13T03:29:06.456Z,1030.87
2023-02-13T03:30:06.443Z,1030.82
2023-02-13T03:31:06.447Z,1030.90
2023-02-13T03:32:06.426Z,1030.92
2023-02-13T03:33:06.405Z,1030.94
2023-02-13T03:34:06.387Z,1030.93
2023-02-13T03:35:06.378Z,1030.91
2023-02-13T03:36:06.370Z,1030.96
2023-02-13T03:37:06.367Z,1030.92
2023-02-13T03:38:06.416Z,1030.91
2023-02-13T03:39:06.330Z,1030.93
2023-02-13T03:40:06.307Z,1030.95
2023-02-13T03:41:06.308Z,1030.94
2023-02-13T03:42:06.332Z,1030.96
2023-02-13T03:43:06.296Z,1030.96
2023-02-13T03:44:06.303Z,1030.94
2023-02-13T03:45:06.271Z,1030.91
2023-02-13T03:46:06.312Z,1030.93
2023-02-13T03:47:06.248Z,1030.89
2023-02-13T03:48:06.237Z,1030.88
2023-02-13T03:49:06.240Z,1030.91
2023-02-13T03:50:06.238Z,1030.93
2023-02-13T03:51:06.206Z,1030.93
2023-02-13T03:52:06.244Z,1030.90
2023-02-13T03:53:06.183Z,1030.92
2023-02-13T03:54:06.198Z,1030.88
2023-02-13T03:55:06.165Z,1030.91
2023-02-13T03:56:06.203Z,1030.90
2023-02-13T03:57:06.159Z,1030.98
2023-02-13T03:58:06.128Z,1030.92
2023-02-13T03:59:06.114Z,1030.92
2023-02-13T04:00:06.139Z,1030.97
2023-02-13T04:01:06.119Z,1030.91
2023-02-13T04:02:06.193Z,1030.90
2023-02-13T04:03:06.070Z,1030.89
2023-02-13T04:04:06.098Z,1030.90
2023-02-13T04:05:06.042Z,1030.88
2023-02-13T04:06:06.036Z,1030.91
2023-02-13T04:07:06.107Z,1030.87
2023-02-13T04:08:06.040Z,1030.91
2023-02-13T04:09:06.020Z,1030.91
2023-02-13T04:10:06.004Z,1030.96
2023-02-13T04:11:06.008Z,1030.92
2023-02-13T04:12:06.044Z,1030.92
2023-02-13T04:13:05.949Z,1030.92
2023-02-13T04:14:05.999Z,1030.94
2023-02-13T04:15:05.933Z,1030.91
2023-02-13T04:16:06.004Z,1030.93
2023-02-13T04:17:05.935Z,1030.93
2023-02-13T04:18:05.920Z,1030.94
2023-02-13T04:19:05.890Z,1030.94
2023-02-13T04:20:05.891Z,1030.95
2023-02-13T04:21:05.872Z,1030.96
2023-02-13T04:22:05.867Z,1031.00
2023-02-13T04:23:05.842Z,1030.95
2023-02-13T04:24:05.945Z,1030.98
2023-02-13T04:25:05.824Z,1030.98
2023-02-13T04:26:05.832Z,1031.01
2023-02-13T04:27:06.066Z,1031.00
2023-02-13T04:28:05.849Z,1030.96
2023-02-13T04:29:05.784Z,1030.97
2023-02-13T04:30:05.807Z,1030.94
2023-02-13T04:31:06.036Z,1030.93
2023-02-13T04:32:06.258Z,1030.95
2023-02-13T04:33:05.754Z,1030.92
2023-02-13T04:34:05.744Z,1030.99
2023-02-13T04:35:06.089Z,1030.95
2023-02-13T04:36:05.730Z,1030.96
2023-02-13T04:37:05.888Z,1030.87
2023-02-13T04:38:05.707Z,1030.98
2023-02-13T04:39:05.697Z,1030.96
2023-02-13T04:40:05.750Z,1030.95
2023-02-13T04:41:05.669Z,1030.97
2023-02-13T04:42:05.668Z,1030.95
2023-02-13T04:43:05.628Z,1030.91
2023-02-13T04:44:05.618Z,1030.90
2023-02-13T04:45:05.610Z,1030.91
2023-02-13T04:46:05.645Z,1030.86
2023-02-13T04:47:05.609Z,1030.91
2023-02-13T04:48:05.607Z,1030.92
2023-02-13T04:49:05.565Z,1030.92
2023-02-13T04:50:05.575Z,1030.95
2023-02-13T04:51:05.540Z,1030.96
2023-02-13T04:52:05.545Z,1030.89
2023-02-13T04:53:05.519Z,1030.90
2023-02-13T04:54:05.576Z,1030.95
2023-02-13T04:55:05.513Z,1030.88
2023-02-13T04:56:05.499Z,1030.86
2023-02-13T04:57:05.515Z,1030.87
2023-02-13T04:58:05.463Z,1030.87
2023-02-13T04:59:05.480Z,1030.85
2023-02-13T05:00:05.447Z,1030.84
2023-02-13T05:01:05.467Z,1030.87
2023-02-13T05:02:05.436Z,1030.84
2023-02-13T05:03:05.411Z,1030.82
2023-02-13T05:04:05.418Z,1030.83
2023-02-13T05:05:05.391Z,1030.79
2023-02-13T05:06:05.385Z,1030.81
2023-02-13T05:07:05.372Z,1030.79
2023-02-13T05:08:05.354Z,1030.80
2023-02-13T05:09:05.351Z,1030.76
2023-02-13T05:10:05.347Z,1030.77
2023-02-13T05:11:05.341Z,1030.79
2023-02-13T05:12:05.383Z,1030.79
2023-02-13T05:13:05.304Z,1030.76
2023-02-13T05:14:05.313Z,1030.79
2023-02-13T05:15:05.288Z,1030.78
2023-02-13T05:16:05.307Z,1030.79
2023-02-13T05:17:05.292Z,1030.83
2023-02-13T05:18:05.270Z,1030.82
2023-02-13T05:19:05.241Z,1030.83
2023-02-13T05:20:05.227Z,1030.88
2023-02-13T05:21:05.224Z,1030.85
2023-02-13T05:22:05.223Z,1030.89
2023-02-13T05:23:05.197Z,1030.91
2023-02-13T05:24:05.197Z,1030.92
2023-02-13T05:25:05.194Z,1030.97
2023-02-13T05:26:05.170Z,1030.95
2023-02-13T05:27:05.163Z,1030.99
2023-02-13T05:28:05.175Z,1030.93
2023-02-13T05:29:05.139Z,1030.95
2023-02-13T05:30:05.192Z,1030.97
2023-02-13T05:31:05.230Z,1031.01
2023-02-13T05:32:05.199Z,1030.98
2023-02-13T05:33:05.085Z,1030.96
2023-02-13T05:34:05.070Z,1030.92
2023-02-13T05:35:05.068Z,1030.93
2023-02-13T05:36:05.061Z,1030.97
2023-02-13T05:37:05.058Z,1030.93
2023-02-13T05:38:05.032Z,1030.95
2023-02-13T05:39:05.030Z,1030.95
2023-02-13T05:40:05.066Z,1030.94
2023-02-13T05:41:05.020Z,1030.95
2023-02-13T05:42:04.986Z,1031.00
2023-02-13T05:43:04.981Z,1030.98
2023-02-13T05:44:04.992Z,1031.00
2023-02-13T05:45:04.960Z,1031.00
2023-02-13T05:46:04.995Z,1031.01
2023-02-13T05:47:05.607Z,1030.98
2023-02-13T05:48:04.924Z,1031.00
2023-02-13T05:49:04.984Z,1031.02
2023-02-13T05:50:04.969Z,1031.00
2023-02-13T05:51:04.895Z,1031.01
2023-02-13T05:52:04.884Z,1031.04
2023-02-13T05:53:04.875Z,1031.02
2023-02-13T05:54:04.861Z,1030.99
2023-02-13T05:55:04.850Z,1031.01
2023-02-13T05:56:04.872Z,1030.97
2023-02-13T05:57:04.850Z,1031.00
2023-02-13T05:58:04.828Z,1030.98
2023-02-13T05:59:04.808Z,1031.03
2023-02-13T06:00:04.799Z,1030.99
2023-02-13T06:01:04.785Z,1031.00
2023-02-13T06:02:04.793Z,1030.98
2023-02-13T06:03:04.761Z,1031.00
2023-02-13T06:04:04.857Z,1031.01
2023-02-13T06:05:04.750Z,1031.02
2023-02-13T06:06:04.719Z,1030.97
2023-02-13T06:07:04.726Z,1030.99
2023-02-13T06:08:04.711Z,1030.98
2023-02-13T06:09:04.699Z,1030.98
2023-02-13T06:10:04.691Z,1030.99
2023-02-13T06:11:04.689Z,1031.03
2023-02-13T06:12:04.693Z,1031.03
2023-02-13T06:13:04.658Z,1031.01
2023-02-13T06:14:04.745Z,1031.06
2023-02-13T06:15:04.639Z,1031.02
2023-02-13T06:16:04.643Z,1031.02
2023-02-13T06:17:04.634Z,1031.01
2023-02-13T06:18:04.604Z,1031.05
2023-02-13T06:19:04.590Z,1031.04
2023-02-13T06:20:04.633Z,1031.08
2023-02-13T06:21:04.571Z,1031.04
2023-02-13T06:22:04.559Z,1031.04
2023-02-13T06:23:04.544Z,1031.05
2023-02-13T06:24:04.607Z,1031.03
2023-02-13T06:25:04.519Z,1031.03
2023-02-13T06:26:04.629Z,1031.05
2023-02-13T06:27:04.509Z,1031.07
2023-02-13T06:28:04.504Z,1031.10
2023-02-13T06:29:05.824Z,1031.12
2023-02-13T06:30:04.461Z,1031.14
2023-02-13T06:31:04.548Z,1031.14
2023-02-13T06:32:04.521Z,1031.12
2023-02-13T06:33:04.432Z,1031.14
2023-02-13T06:34:04.462Z,1031.13
2023-02-13T06:35:05.637Z,1031.15
2023-02-13T06:36:04.417Z,1031.16
2023-02-13T06:37:04.403Z,1031.16
2023-02-13T06:38:04.391Z,1031.14
2023-02-13T06:39:04.378Z,1031.14
2023-02-13T06:40:04.362Z,1031.16
2023-02-13T06:41:04.342Z,1031.13
2023-02-13T06:42:04.438Z,1031.10
2023-02-13T06:43:04.327Z,1031.16
2023-02-13T06:44:04.311Z,1031.11
2023-02-13T06:45:04.304Z,1031.16
2023-02-13T06:46:04.301Z,1031.12
2023-02-13T06:47:04.304Z,1031.15
2023-02-13T06:48:04.276Z,1031.13
2023-02-13T06:49:04.258Z,1031.09
2023-02-13T06:50:04.343Z,1031.10
2023-02-13T06:51:04.237Z,1031.13
2023-02-13T06:52:04.233Z,1031.13
2023-02-13T06:53:04.225Z,1031.09
2023-02-13T06:54:04.271Z,1031.07
2023-02-13T06:55:04.203Z,1031.10
2023-02-13T06:56:04.216Z,1031.11
2023-02-13T06:57:04.202Z,1031.13
2023-02-13T06:58:04.164Z,1031.09
2023-02-13T06:59:04.150Z,1031.06
2023-02-13T07:00:04.174Z,1031.04
2023-02-13T07:01:04.292Z,1031.04
2023-02-13T07:02:04.135Z,1031.00
2023-02-13T07:03:04.162Z,1031.02
2023-02-13T07:04:04.118Z,1030.96
2023-02-13T07:05:04.085Z,1030.95
2023-02-13T07:06:04.087Z,1030.95
2023-02-13T07:07:04.078Z,1030.94
2023-02-13T07:08:04.048Z,1030.98
2023-02-13T07:09:04.047Z,1030.97
2023-02-13T07:10:04.771Z,1030.95
2023-02-13T07:11:04.023Z,1030.95
2023-02-13T07:12:04.026Z,1030.99
2023-02-13T07:13:06.247Z,1031.01
2023-02-13T07:14:03.988Z,1030.99
2023-02-13T07:15:04.016Z,1031.02
2023-02-13T07:16:04.111Z,1030.98
2023-02-13T07:17:04.052Z,1030.98
2023-02-13T07:18:03.960Z,1030.99
2023-02-13T07:19:03.918Z,1031.00
2023-02-13T07:20:03.959Z,1030.99
2023-02-13T07:21:03.906Z,1031.01
2023-02-13T07:22:03.938Z,1030.98
2023-02-13T07:23:03.934Z,1030.99
2023-02-13T07:24:03.879Z,1030.98
2023-02-13T07:25:03.879Z,1031.02
2023-02-13T07:26:03.857Z,1031.00
2023-02-13T07:27:03.842Z,1031.01
2023-02-13T07:28:03.956Z,1030.99
2023-02-13T07:29:11.218Z,1030.96
2023-02-13T07:30:04.979Z,1031.01
2023-02-13T07:31:03.960Z,1030.99
2023-02-13T07:32:03.879Z,1031.01
2023-02-13T07:33:03.771Z,1031.02
2023-02-13T07:34:03.799Z,1031.00
2023-02-13T07:35:03.759Z,1031.00
2023-02-13T07:36:03.770Z,1031.00
2023-02-13T07:37:03.742Z,1031.06
2023-02-13T07:38:03.763Z,1031.03
2023-02-13T07:39:03.710Z,1031.00
2023-02-13T07:40:05.582Z,1031.00
2023-02-13T07:41:03.705Z,1031.00
2023-02-13T07:42:03.721Z,1030.96
2023-02-13T07:43:03.673Z,1030.99
2023-02-13T07:44:03.682Z,1030.93
2023-02-13T07:45:03.662Z,1030.96
2023-02-13T07:46:03.644Z,1030.96
2023-02-13T07:47:03.674Z,1030.94
2023-02-13T07:48:03.793Z,1030.94
2023-02-13T07:49:03.607Z,1030.98
2023-02-13T07:50:03.610Z,1030.97
2023-02-13T07:51:03.613Z,1030.98
2023-02-13T07:52:03.591Z,1030.97
2023-02-13T07:53:03.566Z,1030.95
2023-02-13T07:54:03.563Z,1030.97
2023-02-13T07:55:03.536Z,1030.98
2023-02-13T07:56:03.581Z,1030.98
2023-02-13T07:57:03.546Z,1031.01
2023-02-13T07:58:03.526Z,1031.01
2023-02-13T07:59:03.507Z,1031.03
2023-02-13T08:00:03.755Z,1031.04
2023-02-13T08:01:03.588Z,1030.99
2023-02-13T08:02:03.535Z,1031.03
2023-02-13T08:03:03.465Z,1030.97
2023-02-13T08:04:03.489Z,1030.98
2023-02-13T08:05:03.431Z,1031.01
2023-02-13T08:06:03.609Z,1031.02
2023-02-13T08:07:03.418Z,1031.03
2023-02-13T08:08:03.470Z,1030.98
2023-02-13T08:09:03.409Z,1031.05
2023-02-13T08:10:03.462Z,1031.02
2023-02-13T08:11:03.372Z,1031.00
2023-02-13T08:12:03.374Z,1031.04
2023-02-13T08:13:03.349Z,1031.01
2023-02-13T08:14:03.407Z,1031.03
2023-02-13T08:15:03.326Z,1031.03
2023-02-13T08:16:03.375Z,1031.03
2023-02-13T08:17:03.318Z,1031.05
2023-02-13T08:18:03.346Z,1031.03
2023-02-13T08:19:03.274Z,1031.03
2023-02-13T08:20:03.289Z,1031.07
2023-02-13T08:21:03.268Z,1031.07
2023-02-13T08:22:03.289Z,1031.05
2023-02-13T08:23:03.319Z,1031.04
2023-02-13T08:24:03.312Z,1031.00
2023-02-13T08:25:03.217Z,1031.08
2023-02-13T08:26:03.229Z,1031.09
2023-02-13T08:27:03.305Z,1031.04
2023-02-13T08:28:03.224Z,1031.06
2023-02-13T08:29:03.174Z,1031.06
2023-02-13T08:30:03.227Z,1031.03
2023-02-13T08:31:03.285Z,1031.08
2023-02-13T08:32:03.222Z,1031.09
2023-02-13T08:33:03.137Z,1031.09
2023-02-13T08:34:03.142Z,1031.09
2023-02-13T08:35:03.104Z,1031.15
2023-02-13T08:36:03.115Z,1031.14
2023-02-13T08:37:03.086Z,1031.16
2023-02-13T08:38:03.076Z,1031.12
2023-02-13T08:39:03.105Z,1031.14
2023-02-13T08:40:03.066Z,1031.16
2023-02-13T08:41:03.036Z,1031.15
2023-02-13T08:42:03.040Z,1031.17
2023-02-13T08:43:03.016Z,1031.14
2023-02-13T08:44:03.001Z,1031.15
2023-02-13T08:45:02.988Z,1031.12
2023-02-13T08:46:03.078Z,1031.12
2023-02-13T08:47:02.999Z,1031.11
2023-02-13T08:48:02.959Z,1031.13
2023-02-13T08:49:02.948Z,1031.13
2023-02-13T08:50:02.956Z,1031.14
2023-02-13T08:51:02.927Z,1031.11
2023-02-13T08:52:02.926Z,1031.13
2023-02-13T08:53:02.919Z,1031.21
2023-02-13T08:54:02.890Z,1031.25
2023-02-13T08:55:02.876Z,1031.15
2023-02-13T08:56:02.928Z,1031.18
2023-02-13T08:57:02.880Z,1031.18
2023-02-13T08:58:02.901Z,1031.10
2023-02-13T08:59:02.839Z,1031.13
2023-02-13T09:00:02.944Z,1031.11
2023-02-13T09:01:02.882Z,1031.12
2023-02-13T09:02:02.830Z,1031.12
2023-02-13T09:03:02.898Z,1031.17
2023-02-13T09:04:02.779Z,1031.14
2023-02-13T09:05:02.783Z,1031.16
2023-02-13T09:06:02.784Z,1031.18
2023-02-13T09:07:02.760Z,1031.17
2023-02-13T09:08:02.867Z,1031.17
2023-02-13T09:09:02.736Z,1031.17
2023-02-13T09:10:02.735Z,1031.16
2023-02-13T09:11:02.711Z,1031.15
2023-02-13T09:12:02.909Z,1031.21
2023-02-13T09:13:02.699Z,1031.21
2023-02-13T09:14:02.673Z,1031.20
2023-02-13T09:15:02.673Z,1031.24
2023-02-13T09:16:02.753Z,1031.21
2023-02-13T09:17:02.700Z,1031.22
2023-02-13T09:18:02.635Z,1031.15
2023-02-13T09:19:02.623Z,1031.12
2023-02-13T09:20:02.642Z,1031.15
2023-02-13T09:21:02.604Z,1031.09
2023-02-13T09:22:02.622Z,1031.11
2023-02-13T09:23:02.575Z,1031.07
2023-02-13T09:24:02.567Z,1031.12
2023-02-13T09:25:02.563Z,1031.10
2023-02-13T09:26:02.578Z,1031.13
2023-02-13T09:27:02.548Z,1031.14
2023-02-13T09:28:02.530Z,1031.16
2023-02-13T09:29:02.521Z,1031.14
2023-02-13T09:30:02.530Z,1031.16
2023-02-13T09:31:02.550Z,1031.14
2023-02-13T09:32:02.540Z,1031.17
2023-02-13T09:33:02.482Z,1031.14
2023-02-13T09:34:02.473Z,1031.14
2023-02-13T09:35:02.461Z,1031.11
2023-02-13T09:36:02.546Z,1031.16
2023-02-13T09:37:02.451Z,1031.13
2023-02-13T09:38:02.429Z,1031.13
2023-02-13T09:39:02.409Z,1031.12
2023-02-13T09:40:03.199Z,1031.09
2023-02-13T09:41:02.393Z,1031.11
2023-02-13T09:42:02.440Z,1031.17
2023-02-13T09:43:02.363Z,1031.18
2023-02-13T09:44:02.425Z,1031.12
2023-02-13T09:45:02.344Z,1031.11
2023-02-13T09:46:02.411Z,1031.09
2023-02-13T09:47:02.332Z,1031.08
2023-02-13T09:48:02.314Z,1031.12
2023-02-13T09:49:02.303Z,1031.12
2023-02-13T09:50:02.299Z,1031.14
2023-02-13T09:51:02.377Z,1031.07
2023-02-13T09:52:02.293Z,1031.12
2023-02-13T09:53:02.270Z,1031.14
2023-02-13T09:54:02.300Z,1031.07
2023-02-13T09:55:02.232Z,1031.10
2023-02-13T09:56:02.393Z,1031.11
2023-02-13T09:57:02.226Z,1031.09
2023-02-13T09:58:02.195Z,1031.12
2023-02-13T09:59:02.234Z,1031.15
2023-02-13T10:00:02.329Z,1031.09
2023-02-13T10:01:02.241Z,1031.08
2023-02-13T10:02:02.270Z,1031.07
2023-02-13T10:03:02.143Z,1031.11
2023-02-13T10:04:02.127Z,1031.09
2023-02-13T10:05:02.200Z,1031.04
2023-02-13T10:06:02.110Z,1031.04
2023-02-13T10:07:02.123Z,1031.07
2023-02-13T10:08:02.096Z,1031.05
2023-02-13T10:09:02.092Z,1031.09
2023-02-13T10:10:02.057Z,1031.04
2023-02-13T10:11:02.083Z,1031.05
2023-02-13T10:12:02.196Z,1031.12
2023-02-13T10:13:02.064Z,1031.10
2023-02-13T10:14:02.152Z,1031.09
2023-02-13T10:15:02.053Z,1031.12
2023-02-13T10:16:02.161Z,1031.08
2023-02-13T10:17:02.024Z,1031.08
2023-02-13T10:18:02.011Z,1031.09
2023-02-13T10:19:01.985Z,1031.11
2023-02-13T10:20:01.979Z,1031.08
2023-02-13T10:21:02.041Z,1031.11
2023-02-13T10:22:01.947Z,1031.08
2023-02-13T10:23:02.078Z,1031.01
2023-02-13T10:24:01.952Z,1030.97
2023-02-13T10:25:01.889Z,1031.04
2023-02-13T10:26:01.896Z,1030.99
2023-02-13T10:27:01.889Z,1031.02
2023-02-13T10:28:01.917Z,1030.97
2023-02-13T10:29:01.950Z,1030.94
2023-02-13T10:30:01.853Z,1030.92
2023-02-13T10:31:01.864Z,1030.89
2023-02-13T10:32:02.179Z,1030.93
2023-02-13T10:33:01.819Z,1030.90
2023-02-13T10:34:01.811Z,1030.92
2023-02-13T10:35:01.794Z,1030.86
2023-02-13T10:36:01.886Z,1030.88
2023-02-13T10:37:01.811Z,1030.84
2023-02-13T10:38:01.782Z,1030.75
2023-02-13T10:39:01.790Z,1030.80
2023-02-13T10:40:01.735Z,1030.79
2023-02-13T10:41:01.726Z,1030.75
2023-02-13T10:42:01.725Z,1030.78
2023-02-13T10:43:01.726Z,1030.71
2023-02-13T10:44:01.930Z,1030.72
2023-02-13T10:45:01.796Z,1030.71
2023-02-13T10:46:01.939Z,1030.69
2023-02-13T10:47:01.669Z,1030.61
2023-02-13T10:48:01.657Z,1030.61
2023-02-13T10:49:01.641Z,1030.65
2023-02-13T10:50:01.630Z,1030.60
2023-02-13T10:51:01.620Z,1030.53
2023-02-13T10:52:01.614Z,1030.55
2023-02-13T10:53:01.621Z,1030.53
2023-02-13T10:54:01.581Z,1030.55
2023-02-13T10:55:02.760Z,1030.57
2023-02-13T10:56:01.705Z,1030.47
2023-02-13T10:57:01.564Z,1030.46
2023-02-13T10:58:01.538Z,1030.38
2023-02-13T10:59:01.534Z,1030.37
2023-02-13T11:00:01.526Z,1030.35
2023-02-13T11:01:01.518Z,1030.32
2023-02-13T11:02:01.538Z,1030.36
2023-02-13T11:03:01.494Z,1030.31
2023-02-13T11:04:01.504Z,1030.33
2023-02-13T11:05:01.488Z,1030.29
2023-02-13T11:06:01.498Z,1030.26
2023-02-13T11:07:01.452Z,1030.26
2023-02-13T11:08:01.439Z,1030.25
2023-02-13T11:09:01.405Z,1030.23
2023-02-13T11:10:01.407Z,1030.18
2023-02-13T11:11:01.402Z,1030.15
2023-02-13T11:12:01.385Z,1030.16
2023-02-13T11:13:01.371Z,1030.13
2023-02-13T11:14:01.355Z,1030.09
2023-02-13T11:15:01.369Z,1030.12
2023-02-13T11:16:01.863Z,1030.10
2023-02-13T11:17:01.338Z,1030.07
2023-02-13T11:18:01.331Z,1030.06
2023-02-13T11:19:01.299Z,1030.01
2023-02-13T11:20:01.304Z,1030.01
2023-02-13T11:21:01.287Z,1029.98
2023-02-13T11:22:01.310Z,1029.93
2023-02-13T11:23:01.286Z,1029.90
2023-02-13T11:24:01.259Z,1029.91
2023-02-13T11:25:01.238Z,1029.83
2023-02-13T11:26:01.277Z,1029.80
2023-02-13T11:27:01.238Z,1029.76
2023-02-13T11:28:01.248Z,1029.74
2023-02-13T11:29:01.217Z,1029.71
2023-02-13T11:30:01.193Z,1029.69
2023-02-13T11:31:01.271Z,1029.71
2023-02-13T11:32:01.331Z,1029.62
2023-02-13T11:33:01.209Z,1029.63
2023-02-13T11:34:01.166Z,1029.63
2023-02-13T11:35:01.133Z,1029.60
2023-02-13T11:36:01.155Z,1029.58
2023-02-13T11:37:01.127Z,1029.55
2023-02-13T11:38:01.110Z,1029.55
2023-02-13T11:39:01.140Z,1029.50
2023-02-13T11:40:01.084Z,1029.51
2023-02-13T11:41:01.075Z,1029.51
2023-02-13T11:42:01.087Z,1029.51
2023-02-13T11:43:01.056Z,1029.49
2023-02-13T11:44:01.044Z,1029.47
2023-02-13T11:45:01.028Z,1029.47
2023-02-13T11:46:01.419Z,1029.43
2023-02-13T11:47:01.078Z,1029.42
2023-02-13T11:48:01.012Z,1029.39
2023-02-13T11:49:00.983Z,1029.42
2023-02-13T11:50:01.007Z,1029.36
2023-02-13T11:51:00.983Z,1029.38
2023-02-13T11:52:00.976Z,1029.36
2023-02-13T11:53:00.947Z,1029.39
2023-02-13T11:54:00.937Z,1029.37
2023-02-13T11:55:01.835Z,1029.39
2023-02-13T11:56:00.930Z,1029.27
2023-02-13T11:57:04.847Z,1029.29
2023-02-13T11:58:00.908Z,1029.29
2023-02-13T11:59:00.982Z,1029.25
2023-02-13T12:00:00.897Z,1029.22
2023-02-13T12:01:00.861Z,1029.21
2023-02-13T12:02:00.880Z,1029.17
2023-02-13T12:03:00.966Z,1029.17
2023-02-13T12:04:00.901Z,1029.12
2023-02-13T12:05:00.813Z,1029.15